Time;durP1;ratioP1;P1;durP2;ratioP2;P2;SDS_P1;SDS_P2;PMS_P1;PMS_P2;Temp;Humidity;BMP_temperature;BMP_pressure;BME280_temperature;BME280_humidity;BME280_pressure;Samples;Min_cycle;Max_cycle;Signal;HPM_P1;HPM_P2
2020/12/18 00:01:00;;;;;;;17.10;9.17;;;8.40;99.90;;;;;;4987637;28;20288;-44
2020/12/18 00:03:25;;;;;;;14.23;8.10;;;8.40;99.90;;;;;;4987341;28;20185;-39
2020/12/18 00:05:52;;;;;;;11.40;8.70;;;8.30;99.90;;;;;;4995065;28;20252;-45
2020/12/18 00:08:18;;;;;;;14.73;9.40;;;8.30;99.90;;;;;;4994513;28;20191;-44
2020/12/18 00:10:43;;;;;;;12.97;8.60;;;8.30;99.90;;;;;;4999888;28;20177;-41
2020/12/18 00:13:09;;;;;;;12.10;7.67;;;8.20;99.90;;;;;;4984568;28;20193;-46
2020/12/18 00:15:35;;;;;;;10.27;8.43;;;8.20;99.90;;;;;;4992436;28;20196;-41
2020/12/18 00:18:00;;;;;;;18.80;9.17;;;8.20;99.90;;;;;;4996625;28;20188;-45
2020/12/18 00:20:26;;;;;;;12.93;8.10;;;8.10;99.90;;;;;;5002437;28;20742;-40
2020/12/18 00:22:51;;;;;;;17.93;8.83;;;8.10;99.90;;;;;;5001154;28;20167;-44
2020/12/18 00:25:17;;;;;;;11.97;8.17;;;8.00;99.90;;;;;;4998797;28;20208;-46
2020/12/18 00:27:43;;;;;;;12.53;8.37;;;8.00;99.90;;;;;;4999373;28;20173;-46
2020/12/18 00:30:11;;;;;;;12.13;7.90;;;7.90;99.90;;;;;;4984207;28;20539;-45
2020/12/18 00:32:41;;;;;;;15.93;9.10;;;7.90;99.90;;;;;;4995778;28;20198;-41
2020/12/18 00:35:08;;;;;;;15.37;8.47;;;7.90;99.90;;;;;;5003591;28;20661;-42
2020/12/18 00:37:34;;;;;;;11.27;7.47;;;7.90;99.90;;;;;;4992275;28;20673;-40
2020/12/18 00:39:59;;;;;;;12.60;7.67;;;7.90;99.90;;;;;;5002531;28;20199;-42
2020/12/18 00:42:27;;;;;;;12.97;8.13;;;7.80;99.90;;;;;;5002157;28;20199;-40
2020/12/18 00:44:53;;;;;;;14.40;7.97;;;7.80;99.90;;;;;;4984515;28;20244;-45
2020/12/18 00:47:18;;;;;;;12.70;8.20;;;7.70;99.90;;;;;;4993310;28;20238;-44
2020/12/18 00:49:44;;;;;;;13.90;8.40;;;7.70;99.90;;;;;;4994467;28;20196;-44
2020/12/18 00:52:09;;;;;;;11.17;7.73;;;7.60;99.90;;;;;;5003664;28;20177;-45
2020/12/18 00:54:34;;;;;;;9.30;7.57;;;7.60;99.90;;;;;;4999505;28;20200;-40
2020/12/18 00:57:00;;;;;;;13.47;8.67;;;7.60;99.90;;;;;;5000590;28;20212;-43
2020/12/18 00:59:26;;;;;;;11.00;8.07;;;7.50;99.90;;;;;;4984679;28;20700;-40
2020/12/18 01:02:03;;;;;;;13.10;8.17;;;7.50;99.90;;;;;;4975219;28;20920;-43
2020/12/18 01:04:29;;;;;;;13.40;8.10;;;7.60;99.90;;;;;;4993039;28;20204;-43
2020/12/18 01:06:54;;;;;;;17.80;8.33;;;7.50;99.90;;;;;;4993843;28;20181;-45
2020/12/18 01:09:24;;;;;;;12.43;8.37;;;7.50;99.90;;;;;;5003245;28;20180;-43
2020/12/18 01:11:50;;;;;;;11.33;8.10;;;7.50;99.90;;;;;;5000129;28;20191;-44
2020/12/18 01:14:16;;;;;;;12.83;7.97;;;7.40;99.90;;;;;;5003361;28;20193;-44
2020/12/18 01:16:41;;;;;;;14.73;8.20;;;7.40;99.90;;;;;;4978149;28;20940;-45
2020/12/18 01:19:07;;;;;;;13.20;8.67;;;7.30;99.90;;;;;;4994832;28;20177;-46
2020/12/18 01:21:32;;;;;;;13.90;8.23;;;7.30;99.90;;;;;;4998557;28;20208;-41
2020/12/18 01:23:58;;;;;;;9.43;7.67;;;7.30;99.90;;;;;;5004877;28;20196;-43
2020/12/18 01:26:23;;;;;;;13.97;7.47;;;7.30;99.90;;;;;;5003994;28;20193;-42
2020/12/18 01:28:49;;;;;;;15.50;7.80;;;7.40;99.90;;;;;;5003701;28;20223;-45
2020/12/18 01:31:15;;;;;;;11.20;8.23;;;7.40;99.90;;;;;;5006502;28;20181;-46
2020/12/18 01:33:40;;;;;;;8.43;7.23;;;7.40;99.90;;;;;;4979651;28;20212;-43
2020/12/18 01:36:08;;;;;;;13.07;8.03;;;7.40;99.90;;;;;;4998709;28;20579;-43
2020/12/18 01:38:33;;;;;;;12.53;8.03;;;7.40;99.90;;;;;;4984408;28;20673;-40
2020/12/18 01:40:59;;;;;;;11.07;8.23;;;7.40;99.90;;;;;;4986910;28;20220;-45
2020/12/18 01:43:24;;;;;;;11.47;7.10;;;7.50;99.90;;;;;;5005706;28;20184;-43
2020/12/18 01:45:50;;;;;;;13.03;7.40;;;7.50;99.90;;;;;;5003771;28;20183;-42
2020/12/18 01:48:16;;;;;;;12.97;7.60;;;7.50;99.90;;;;;;4987589;28;20190;-46
2020/12/18 01:50:42;;;;;;;14.73;7.50;;;7.60;99.90;;;;;;4994328;28;20871;-41
2020/12/18 01:53:09;;;;;;;14.63;7.30;;;7.60;99.90;;;;;;5003432;28;20703;-44
2020/12/18 01:55:35;;;;;;;10.30;7.33;;;7.60;99.90;;;;;;5003472;28;20665;-40
2020/12/18 01:58:01;;;;;;;10.70;7.47;;;7.60;99.90;;;;;;4994034;28;20181;-42
2020/12/18 02:00:27;;;;;;;9.40;7.13;;;7.60;99.90;;;;;;4985493;28;20205;-44
2020/12/18 02:02:54;;;;;;;9.73;7.67;;;7.60;99.90;;;;;;4984264;28;20169;-44
2020/12/18 02:05:20;;;;;;;12.70;7.83;;;7.60;99.90;;;;;;4981588;28;20782;-42
2020/12/18 02:07:59;;;;;;;11.97;8.13;;;7.70;99.90;;;;;;4995722;28;20176;-44
2020/12/18 02:10:24;;;;;;;10.37;7.30;;;7.60;99.90;;;;;;5005120;28;20246;-42
2020/12/18 02:12:50;;;;;;;11.70;6.90;;;7.60;99.90;;;;;;5003136;28;20177;-44
2020/12/18 02:15:16;;;;;;;12.90;7.63;;;7.60;99.90;;;;;;5005933;28;20197;-48
2020/12/18 02:17:42;;;;;;;11.43;7.00;;;7.70;99.90;;;;;;4994547;28;20173;-44
2020/12/18 02:20:07;;;;;;;8.17;7.37;;;7.60;99.90;;;;;;4977051;28;20209;-42
2020/12/18 02:22:33;;;;;;;12.83;7.20;;;7.70;99.90;;;;;;4991642;28;20189;-40
2020/12/18 02:25:07;;;;;;;8.40;6.90;;;7.60;99.90;;;;;;4984562;28;21178;-46
2020/12/18 02:27:37;;;;;;;11.07;6.47;;;7.60;99.90;;;;;;5000437;28;20192;-43
2020/12/18 02:30:10;;;;;;;11.87;7.07;;;7.60;99.90;;;;;;4985910;28;20327;-45
2020/12/18 02:32:35;;;;;;;10.10;7.20;;;7.60;99.90;;;;;;4996676;28;20610;-43
2020/12/18 02:35:02;;;;;;;10.27;7.97;;;7.60;99.90;;;;;;4986770;28;20300;-42
2020/12/18 02:37:28;;;;;;;11.70;7.60;;;7.70;99.90;;;;;;4993548;28;20275;-43
2020/12/18 02:40:00;;;;;;;8.50;7.07;;;7.70;99.90;;;;;;4999584;28;20299;-46
2020/12/18 02:42:25;;;;;;;10.07;6.93;;;7.60;99.90;;;;;;5004107;28;20181;-42
2020/12/18 02:44:51;;;;;;;11.27;7.13;;;7.60;99.90;;;;;;5002197;28;20242;-44
2020/12/18 02:47:16;;;;;;;10.10;6.67;;;7.60;99.90;;;;;;4996237;28;20211;-48
2020/12/18 02:49:42;;;;;;;9.93;6.80;;;7.60;99.90;;;;;;5001398;28;20844;-44
2020/12/18 02:52:08;;;;;;;10.33;7.23;;;7.60;99.90;;;;;;4986044;28;20189;-44
2020/12/18 02:54:33;;;;;;;7.93;7.13;;;7.60;99.90;;;;;;4991461;28;20239;-40
2020/12/18 02:56:59;;;;;;;12.63;7.77;;;7.70;99.90;;;;;;4991586;28;20177;-46
2020/12/18 02:59:24;;;;;;;11.53;8.10;;;7.70;99.90;;;;;;4984444;28;20645;-40
2020/12/18 03:01:50;;;;;;;10.03;6.70;;;7.70;99.90;;;;;;4982359;28;20264;-42
2020/12/18 03:04:15;;;;;;;10.90;7.40;;;7.70;99.90;;;;;;4991925;28;20203;-44
2020/12/18 03:06:41;;;;;;;11.03;7.43;;;7.70;99.90;;;;;;4975550;28;20182;-44
2020/12/18 03:09:06;;;;;;;11.47;7.80;;;7.70;99.90;;;;;;4993479;28;20635;-43
2020/12/18 03:11:32;;;;;;;15.13;7.53;;;7.70;99.90;;;;;;4988425;28;20189;-40
2020/12/18 03:13:57;;;;;;;13.23;7.80;;;7.70;99.90;;;;;;5003641;28;20188;-46
2020/12/18 03:16:23;;;;;;;10.50;8.40;;;7.70;99.90;;;;;;4998136;28;20639;-42
2020/12/18 03:18:48;;;;;;;8.90;7.73;;;7.70;99.90;;;;;;4982203;28;20175;-47
2020/12/18 03:21:14;;;;;;;13.07;8.17;;;7.70;99.90;;;;;;4985014;28;20217;-48
2020/12/18 03:23:39;;;;;;;12.33;7.80;;;7.70;99.90;;;;;;4976104;28;20414;-42
2020/12/18 03:26:05;;;;;;;12.47;7.70;;;7.70;99.90;;;;;;4988636;28;20193;-49
2020/12/18 03:28:30;;;;;;;10.33;8.20;;;7.70;99.90;;;;;;4982880;28;20243;-41
2020/12/18 03:30:56;;;;;;;16.63;8.73;;;7.70;99.90;;;;;;4991800;28;20286;-46
2020/12/18 03:33:22;;;;;;;12.10;8.23;;;7.70;99.90;;;;;;5001993;28;20177;-51
2020/12/18 03:35:47;;;;;;;11.93;8.67;;;7.70;99.90;;;;;;5000214;28;20224;-42
2020/12/18 03:38:13;;;;;;;13.03;8.23;;;7.70;99.90;;;;;;4975021;28;20312;-44
2020/12/18 03:40:38;;;;;;;14.83;7.70;;;7.70;99.90;;;;;;4992317;28;20239;-48
2020/12/18 03:43:04;;;;;;;14.33;8.60;;;7.70;99.90;;;;;;5004040;28;20195;-41
2020/12/18 03:45:30;;;;;;;14.13;8.47;;;7.70;99.90;;;;;;5002268;28;20193;-51
2020/12/18 03:47:55;;;;;;;12.50;8.97;;;7.70;99.90;;;;;;5002476;28;20791;-42
2020/12/18 03:50:21;;;;;;;15.50;8.83;;;7.70;99.90;;;;;;4999219;28;20200;-48
2020/12/18 03:52:46;;;;;;;12.23;8.67;;;7.70;99.90;;;;;;5000488;28;20172;-42
2020/12/18 03:55:11;;;;;;;14.90;8.70;;;7.70;99.90;;;;;;4982723;28;20300;-44
2020/12/18 03:57:37;;;;;;;10.93;8.73;;;7.70;99.90;;;;;;4995547;28;20235;-44
2020/12/18 04:00:06;;;;;;;15.10;8.50;;;7.70;99.90;;;;;;5002515;28;20565;-43
2020/12/18 04:02:32;;;;;;;13.97;8.60;;;7.70;99.90;;;;;;4995646;28;20600;-49
2020/12/18 04:04:57;;;;;;;14.23;8.10;;;7.70;99.90;;;;;;5002350;28;20185;-45
2020/12/18 04:07:22;;;;;;;12.97;8.93;;;7.70;99.90;;;;;;4990439;28;20542;-44
2020/12/18 04:09:48;;;;;;;13.37;8.90;;;7.70;99.90;;;;;;4985291;28;20336;-42
2020/12/18 04:12:13;;;;;;;11.57;8.97;;;7.70;99.90;;;;;;4994454;28;20181;-44
2020/12/18 04:14:39;;;;;;;14.00;8.77;;;7.70;99.90;;;;;;4994979;28;20712;-45
2020/12/18 04:17:05;;;;;;;17.17;8.83;;;7.70;99.90;;;;;;5003759;28;20259;-42
2020/12/18 04:19:31;;;;;;;12.57;9.33;;;7.70;99.90;;;;;;4996657;28;20212;-46
2020/12/18 04:21:57;;;;;;;11.57;8.80;;;7.70;99.90;;;;;;5002097;28;20606;-44
2020/12/18 04:24:23;;;;;;;15.10;9.37;;;7.70;99.90;;;;;;5000587;28;20209;-45
2020/12/18 04:26:48;;;;;;;11.70;8.97;;;7.70;99.90;;;;;;4976740;28;20195;-47
2020/12/18 04:29:14;;;;;;;20.53;9.77;;;7.70;99.90;;;;;;4992372;28;20192;-42
2020/12/18 04:31:40;;;;;;;11.00;8.90;;;7.70;99.90;;;;;;4997838;28;20808;-46
2020/12/18 04:34:06;;;;;;;12.53;9.10;;;7.70;99.90;;;;;;5002877;28;20205;-42
2020/12/18 04:36:31;;;;;;;13.37;9.17;;;7.70;99.90;;;;;;4990808;28;20216;-44
2020/12/18 04:38:57;;;;;;;12.17;9.47;;;7.70;99.90;;;;;;4999250;28;20189;-42
2020/12/18 04:41:24;;;;;;;13.77;9.30;;;7.70;99.90;;;;;;4984250;28;20209;-45
2020/12/18 04:43:49;;;;;;;12.90;9.47;;;7.70;99.90;;;;;;4987096;28;20210;-47
2020/12/18 04:46:17;;;;;;;15.07;9.80;;;7.60;99.90;;;;;;5003860;28;20534;-42
2020/12/18 04:48:45;;;;;;;17.53;9.90;;;7.70;99.90;;;;;;4999659;28;20799;-42
2020/12/18 04:51:17;;;;;;;14.33;8.90;;;7.60;99.90;;;;;;5004413;28;20188;-43
2020/12/18 04:53:42;;;;;;;12.27;9.70;;;7.60;99.90;;;;;;5003616;28;20189;-41
2020/12/18 04:56:11;;;;;;;19.40;11.57;;;7.60;99.90;;;;;;4975027;28;20720;-48
2020/12/18 04:58:38;;;;;;;14.20;9.27;;;7.60;99.90;;;;;;4995824;28;20184;-49
2020/12/18 05:01:04;;;;;;;12.27;8.93;;;7.60;99.90;;;;;;5006591;28;20200;-46
2020/12/18 05:03:33;;;;;;;12.13;8.83;;;7.60;99.90;;;;;;5005356;28;20169;-45
2020/12/18 05:06:03;;;;;;;17.40;9.87;;;7.60;99.90;;;;;;4997341;28;20247;-42
2020/12/18 05:08:29;;;;;;;13.97;9.97;;;7.60;99.90;;;;;;4986554;28;20181;-45
2020/12/18 05:10:55;;;;;;;14.97;9.63;;;7.60;99.90;;;;;;4985233;28;20334;-43
2020/12/18 05:13:20;;;;;;;15.17;10.20;;;7.50;99.90;;;;;;4980089;28;20208;-45
2020/12/18 05:15:46;;;;;;;13.53;9.33;;;7.50;99.90;;;;;;4989250;28;20198;-44
2020/12/18 05:18:12;;;;;;;14.43;9.80;;;7.60;99.90;;;;;;4987560;28;20652;-42
2020/12/18 05:20:38;;;;;;;12.17;9.30;;;7.50;99.90;;;;;;4983386;28;20701;-47
2020/12/18 05:23:09;;;;;;;13.83;8.97;;;7.50;99.90;;;;;;4986897;28;20177;-42
2020/12/18 05:25:35;;;;;;;15.53;8.80;;;7.50;99.90;;;;;;4984163;28;20348;-44
2020/12/18 05:28:03;;;;;;;13.20;9.23;;;7.50;99.90;;;;;;4978215;28;20216;-43
2020/12/18 05:30:28;;;;;;;12.10;9.73;;;7.50;99.90;;;;;;4994122;28;20181;-45
2020/12/18 05:32:54;;;;;;;19.03;11.47;;;7.50;99.90;;;;;;4983706;28;20204;-45
2020/12/18 05:35:20;;;;;;;11.93;9.77;;;7.50;99.90;;;;;;4996823;28;20215;-48
2020/12/18 05:37:45;;;;;;;10.60;8.23;;;7.50;99.90;;;;;;4999245;28;20174;-44
2020/12/18 05:40:11;;;;;;;14.03;8.90;;;7.50;99.90;;;;;;4998056;28;20224;-41
2020/12/18 05:42:47;;;;;;;15.97;8.43;;;7.40;99.90;;;;;;4986762;28;20239;-42
2020/12/18 05:45:15;;;;;;;16.47;8.93;;;7.40;99.90;;;;;;4995057;28;20193;-42
2020/12/18 05:47:58;;;;;;;14.67;9.07;;;7.30;99.90;;;;;;4987286;28;20169;-44
2020/12/18 05:50:36;;;;;;;13.87;8.70;;;7.30;99.90;;;;;;5003498;28;20177;-46
2020/12/18 05:53:03;;;;;;;13.77;9.27;;;7.30;99.90;;;;;;5001958;28;20266;-41
2020/12/18 05:55:38;;;;;;;14.53;9.23;;;7.20;99.90;;;;;;4991812;28;20204;-46
2020/12/18 05:58:04;;;;;;;12.53;8.73;;;7.20;99.90;;;;;;4997851;28;20177;-44
2020/12/18 06:00:29;;;;;;;15.83;9.73;;;7.20;99.90;;;;;;4974194;28;20216;-45
2020/12/18 06:03:02;;;;;;;13.97;8.70;;;7.20;99.90;;;;;;4991137;28;20217;-47
2020/12/18 06:05:28;;;;;;;12.93;8.80;;;7.10;99.90;;;;;;4999461;28;20197;-43
2020/12/18 06:07:54;;;;;;;16.97;9.53;;;7.10;99.90;;;;;;4996759;28;20207;-41
2020/12/18 06:10:24;;;;;;;12.23;8.77;;;7.10;99.90;;;;;;4990425;28;20192;-42
2020/12/18 06:12:59;;;;;;;14.30;9.57;;;7.10;99.90;;;;;;5003338;28;20215;-47
2020/12/18 06:15:25;;;;;;;12.40;9.23;;;7.00;99.90;;;;;;4973617;28;20956;-45
2020/12/18 06:17:52;;;;;;;17.93;9.30;;;7.10;99.90;;;;;;4997106;28;20189;-44
2020/12/18 06:20:19;;;;;;;12.13;9.23;;;7.00;99.90;;;;;;4993296;28;20920;-42
2020/12/18 06:22:59;;;;;;;13.90;8.40;;;7.00;99.90;;;;;;4997726;28;20197;-46
2020/12/18 06:25:25;;;;;;;15.27;9.30;;;7.00;99.90;;;;;;4995022;28;20197;-46
2020/12/18 06:28:02;;;;;;;14.70;8.63;;;7.00;99.90;;;;;;5000850;28;20189;-43
2020/12/18 06:30:29;;;;;;;15.27;8.07;;;7.00;99.90;;;;;;4981315;28;20203;-48
2020/12/18 06:32:56;;;;;;;15.07;8.83;;;6.90;99.90;;;;;;4988020;28;20203;-45
2020/12/18 06:35:27;;;;;;;14.60;8.57;;;6.90;99.90;;;;;;4997791;28;20200;-43
2020/12/18 06:37:53;;;;;;;13.87;8.90;;;6.90;99.90;;;;;;4981413;28;20203;-42
2020/12/18 06:40:33;;;;;;;12.30;8.47;;;6.80;99.90;;;;;;4988180;28;20204;-44
2020/12/18 06:42:59;;;;;;;12.47;8.93;;;6.80;99.90;;;;;;5003762;28;20181;-45
2020/12/18 06:45:26;;;;;;;13.67;9.17;;;6.80;99.90;;;;;;4981189;28;20661;-42
2020/12/18 06:47:52;;;;;;;11.87;8.37;;;6.80;99.90;;;;;;4993621;28;20178;-46
2020/12/18 06:50:19;;;;;;;14.03;8.80;;;6.80;99.90;;;;;;5000599;28;20540;-45
2020/12/18 06:52:58;;;;;;;14.43;9.27;;;6.70;99.90;;;;;;5004797;28;20184;-42
2020/12/18 06:55:29;;;;;;;17.27;9.57;;;6.70;99.90;;;;;;4996577;28;20227;-44
2020/12/18 06:58:09;;;;;;;13.60;9.97;;;6.70;99.90;;;;;;5001320;28;20200;-46
2020/12/18 07:00:42;;;;;;;15.10;8.60;;;6.70;99.90;;;;;;4981355;28;20296;-46
2020/12/18 07:03:09;;;;;;;14.83;9.20;;;6.60;99.90;;;;;;4995605;28;20181;-42
2020/12/18 07:05:40;;;;;;;17.93;9.93;;;6.50;99.90;;;;;;4983289;28;20924;-46
2020/12/18 07:08:09;;;;;;;14.50;9.97;;;6.50;99.90;;;;;;4985159;28;20479;-44
2020/12/18 07:10:38;;;;;;;19.93;10.30;;;6.50;99.90;;;;;;4981930;28;21964;-43
2020/12/18 07:13:05;;;;;;;15.70;9.70;;;6.50;99.90;;;;;;5000587;28;20193;-47
2020/12/18 07:15:43;;;;;;;14.30;10.40;;;6.50;99.90;;;;;;4994696;28;20793;-41
2020/12/18 07:18:28;;;;;;;14.63;10.33;;;6.50;99.90;;;;;;4974471;28;20225;-44
2020/12/18 07:20:55;;;;;;;14.90;10.27;;;6.40;99.90;;;;;;5004353;28;20208;-46
2020/12/18 07:23:21;;;;;;;14.83;9.60;;;6.40;99.90;;;;;;4993030;28;20263;-45
2020/12/18 07:25:47;;;;;;;16.47;11.03;;;6.40;99.90;;;;;;4999867;28;20239;-43
2020/12/18 07:28:13;;;;;;;14.80;9.93;;;6.40;99.90;;;;;;4996621;28;20196;-49
2020/12/18 07:30:44;;;;;;;13.87;10.33;;;6.40;99.90;;;;;;4990407;28;20318;-42
2020/12/18 07:33:11;;;;;;;17.87;10.63;;;6.40;99.90;;;;;;4978663;28;20195;-43
2020/12/18 07:35:42;;;;;;;18.83;10.37;;;6.40;99.90;;;;;;5000057;28;20193;-47
2020/12/18 07:38:22;;;;;;;15.80;10.93;;;6.30;99.90;;;;;;4995863;28;20183;-45
2020/12/18 07:40:51;;;;;;;15.37;10.20;;;6.30;99.90;;;;;;5004573;28;20532;-45
2020/12/18 07:43:18;;;;;;;15.30;10.93;;;6.30;99.90;;;;;;4995967;28;20193;-43
2020/12/18 07:45:47;;;;;;;15.77;9.93;;;6.30;99.90;;;;;;4997563;28;20208;-50
2020/12/18 07:48:18;;;;;;;17.13;9.77;;;6.30;99.90;;;;;;4979915;28;20204;-45
2020/12/18 07:51:03;;;;;;;17.43;10.20;;;6.30;99.90;;;;;;4991144;28;20276;-45
2020/12/18 07:53:31;;;;;;;15.67;10.03;;;6.30;99.90;;;;;;4989437;28;20193;-44
2020/12/18 07:56:02;;;;;;;18.53;10.03;;;6.30;99.90;;;;;;4984360;28;20276;-44
2020/12/18 07:58:28;;;;;;;14.43;9.47;;;6.30;99.90;;;;;;4981839;28;20204;-48
2020/12/18 08:01:08;;;;;;;16.13;9.40;;;6.30;99.90;;;;;;4995897;28;20208;-48
2020/12/18 08:03:34;;;;;;;17.50;9.07;;;6.30;99.90;;;;;;4969490;28;20188;-43
2020/12/18 08:06:04;;;;;;;13.67;9.47;;;6.30;99.90;;;;;;4995731;28;20263;-47
2020/12/18 08:08:31;;;;;;;19.20;10.83;;;6.30;99.90;;;;;;4998850;28;20434;-46
2020/12/18 08:11:00;;;;;;;15.27;9.77;;;6.30;99.90;;;;;;5003634;28;20181;-44
2020/12/18 08:13:26;;;;;;;15.77;10.20;;;6.20;99.90;;;;;;4991259;28;20191;-46
2020/12/18 08:16:09;;;;;;;16.47;9.80;;;6.20;99.90;;;;;;5003950;28;20176;-48
2020/12/18 08:18:35;;;;;;;13.60;9.73;;;6.20;99.90;;;;;;4979970;28;20679;-46
2020/12/18 08:21:01;;;;;;;18.20;9.87;;;6.20;99.90;;;;;;4983651;28;20977;-46
2020/12/18 08:23:29;;;;;;;14.47;9.73;;;6.20;99.90;;;;;;4990414;28;20263;-43
2020/12/18 08:25:56;;;;;;;13.93;9.97;;;6.20;99.90;;;;;;4994705;28;20176;-42
2020/12/18 08:28:24;;;;;;;15.30;10.23;;;6.20;99.90;;;;;;4995879;28;20238;-46
2020/12/18 08:30:50;;;;;;;13.07;9.47;;;6.20;99.90;;;;;;4994253;28;20664;-47
2020/12/18 08:33:19;;;;;;;15.97;9.73;;;6.30;99.90;;;;;;4988769;28;20260;-42
2020/12/18 08:35:53;;;;;;;19.13;9.97;;;6.30;99.90;;;;;;4992802;28;20197;-42
2020/12/18 08:38:18;;;;;;;14.30;8.83;;;6.30;99.90;;;;;;4999005;28;20184;-46
2020/12/18 08:40:44;;;;;;;16.27;9.17;;;6.30;99.90;;;;;;4998598;28;20203;-44
2020/12/18 08:43:13;;;;;;;13.17;9.23;;;6.30;99.90;;;;;;4995525;28;20252;-46
2020/12/18 08:45:42;;;;;;;19.07;9.03;;;6.40;99.90;;;;;;4985600;28;20215;-42
2020/12/18 08:48:08;;;;;;;14.43;8.93;;;6.40;99.90;;;;;;4989419;28;20226;-47
2020/12/18 08:50:34;;;;;;;15.27;8.30;;;6.40;99.90;;;;;;4972009;28;20270;-43
2020/12/18 08:53:10;;;;;;;14.00;8.93;;;6.40;99.90;;;;;;4990697;28;20581;-41
2020/12/18 08:55:36;;;;;;;17.27;8.03;;;6.50;99.90;;;;;;5000159;28;20257;-42
2020/12/18 08:58:08;;;;;;;18.97;9.13;;;6.60;99.90;;;;;;4998434;28;20265;-42
2020/12/18 09:00:34;;;;;;;13.23;8.20;;;6.60;99.90;;;;;;4996950;28;20208;-44
2020/12/18 09:03:03;;;;;;;11.67;7.70;;;6.60;99.90;;;;;;4996170;28;20193;-42
2020/12/18 09:05:31;;;;;;;16.90;8.27;;;6.70;99.90;;;;;;4970224;28;20230;-46
2020/12/18 09:08:01;;;;;;;16.57;8.03;;;6.70;99.90;;;;;;4991571;28;20869;-49
2020/12/18 09:10:33;;;;;;;15.90;7.53;;;6.80;99.90;;;;;;4993438;28;20238;-48
2020/12/18 09:13:15;;;;;;;13.70;6.77;;;6.80;99.90;;;;;;4989852;28;20195;-46
2020/12/18 09:15:42;;;;;;;11.20;7.20;;;6.80;99.90;;;;;;4989345;28;20200;-43
2020/12/18 09:18:10;;;;;;;8.13;5.80;;;6.80;99.90;;;;;;4991698;28;20189;-46
2020/12/18 09:20:37;;;;;;;8.13;5.93;;;6.90;99.90;;;;;;4969525;28;20201;-48
2020/12/18 09:23:12;;;;;;;8.47;5.63;;;6.90;99.90;;;;;;4990776;28;20189;-43
2020/12/18 09:25:49;;;;;;;6.07;4.90;;;7.00;99.90;;;;;;4990266;28;20192;-50
2020/12/18 09:28:19;;;;;;;8.17;5.30;;;7.00;99.90;;;;;;4998963;28;20188;-51
2020/12/18 09:30:49;;;;;;;9.30;5.80;;;7.10;99.90;;;;;;4998715;28;20271;-44
2020/12/18 09:33:21;;;;;;;7.23;5.03;;;7.10;99.90;;;;;;4991590;28;20182;-47
2020/12/18 09:35:46;;;;;;;8.50;5.47;;;7.20;99.90;;;;;;4980563;28;20216;-46
2020/12/18 09:38:12;;;;;;;6.23;4.67;;;7.30;99.90;;;;;;4995974;28;20576;-50
2020/12/18 09:40:38;;;;;;;8.90;5.20;;;7.30;99.90;;;;;;4984144;28;20201;-47
2020/12/18 09:43:03;;;;;;;7.47;4.37;;;7.40;99.90;;;;;;4987318;28;20591;-43
2020/12/18 09:45:29;;;;;;;9.03;4.67;;;7.40;99.90;;;;;;4988625;28;20197;-46
2020/12/18 09:47:55;;;;;;;8.73;4.97;;;7.50;99.90;;;;;;5006658;28;20231;-46
2020/12/18 09:50:21;;;;;;;4.50;4.13;;;7.50;99.90;;;;;;4996284;28;20192;-45
2020/12/18 09:52:47;;;;;;;8.63;4.50;;;7.60;99.90;;;;;;4980985;28;20606;-48
2020/12/18 09:55:14;;;;;;;4.40;4.00;;;7.60;99.90;;;;;;4996750;28;20236;-50
2020/12/18 09:57:39;;;;;;;5.43;4.40;;;7.60;99.90;;;;;;5004060;28;20215;-46
2020/12/18 10:00:06;;;;;;;6.17;4.17;;;7.60;99.90;;;;;;4990098;28;20911;-47
2020/12/18 10:02:31;;;;;;;6.63;4.20;;;7.70;99.90;;;;;;4995365;28;20182;-43
2020/12/18 10:04:57;;;;;;;7.27;4.50;;;7.70;99.90;;;;;;4994132;28;20243;-47
2020/12/18 10:07:23;;;;;;;10.13;5.07;;;7.80;99.90;;;;;;4978926;28;20236;-47
2020/12/18 10:09:49;;;;;;;5.77;4.00;;;7.90;99.90;;;;;;4994948;28;20181;-49
2020/12/18 10:12:14;;;;;;;6.73;4.20;;;8.00;99.90;;;;;;4988312;28;20193;-42
2020/12/18 10:14:40;;;;;;;8.23;4.37;;;7.90;99.90;;;;;;4989843;28;20217;-50
2020/12/18 10:17:05;;;;;;;5.07;4.17;;;7.90;99.90;;;;;;4992495;28;20184;-47
2020/12/18 10:19:31;;;;;;;9.77;4.77;;;7.90;99.90;;;;;;4997983;28;20215;-42
2020/12/18 10:21:56;;;;;;;6.00;4.23;;;7.90;99.90;;;;;;4985709;28;20204;-47
2020/12/18 10:24:22;;;;;;;6.27;4.10;;;7.90;99.90;;;;;;4979086;28;20590;-42
2020/12/18 10:26:48;;;;;;;7.40;3.50;;;7.90;99.90;;;;;;4998038;28;20184;-53
2020/12/18 10:29:14;;;;;;;5.83;4.17;;;7.90;99.90;;;;;;4999459;28;20242;-43
2020/12/18 10:31:39;;;;;;;9.47;4.47;;;8.00;99.90;;;;;;4984617;28;20193;-49
2020/12/18 10:34:05;;;;;;;8.27;5.17;;;8.00;99.90;;;;;;4997549;28;20221;-47
2020/12/18 10:36:30;;;;;;;6.87;3.97;;;8.00;99.90;;;;;;4994299;28;20197;-43
2020/12/18 10:38:56;;;;;;;6.60;4.10;;;8.20;99.90;;;;;;4972451;28;21491;-48
2020/12/18 10:41:21;;;;;;;5.90;3.80;;;8.30;99.90;;;;;;4976739;28;20217;-47
2020/12/18 10:43:47;;;;;;;7.80;4.20;;;8.20;99.90;;;;;;4983594;28;20201;-52
2020/12/18 10:46:12;;;;;;;5.73;4.03;;;8.20;99.90;;;;;;4981551;28;20193;-43
2020/12/18 10:48:38;;;;;;;5.63;3.77;;;8.30;99.90;;;;;;4996542;28;20185;-46
2020/12/18 10:51:03;;;;;;;5.57;3.87;;;8.30;99.90;;;;;;4992417;28;20565;-45
2020/12/18 10:53:29;;;;;;;7.67;3.60;;;8.30;99.90;;;;;;4988311;28;20235;-51
2020/12/18 10:55:54;;;;;;;4.27;3.37;;;8.30;99.90;;;;;;4972300;28;20221;-50
2020/12/18 10:58:20;;;;;;;8.80;4.07;;;8.40;99.90;;;;;;4995852;28;20174;-48
2020/12/18 11:00:45;;;;;;;5.13;3.90;;;8.40;99.90;;;;;;4993788;28;20935;-47
2020/12/18 11:03:11;;;;;;;5.47;3.47;;;8.50;99.90;;;;;;4983640;28;20619;-48
2020/12/18 11:05:36;;;;;;;6.77;3.40;;;8.50;99.90;;;;;;4982981;28;20193;-46
2020/12/18 11:08:02;;;;;;;4.17;3.00;;;8.60;99.90;;;;;;4997132;28;20185;-51
2020/12/18 11:10:27;;;;;;;4.90;3.13;;;8.60;99.90;;;;;;4981173;28;20668;-50
2020/12/18 11:12:53;;;;;;;4.77;3.10;;;8.70;99.90;;;;;;4989489;28;20281;-43
2020/12/18 11:15:18;;;;;;;6.83;3.07;;;8.70;99.90;;;;;;4993678;28;20241;-49
2020/12/18 11:17:44;;;;;;;19.60;14.80;;;8.80;99.90;;;;;;4986465;28;20307;-43
2020/12/18 11:20:11;;;;;;;15.53;10.90;;;8.80;99.90;;;;;;4992625;28;20204;-45
2020/12/18 11:22:36;;;;;;;8.07;6.43;;;8.90;99.90;;;;;;4981688;28;20188;-44
2020/12/18 11:25:04;;;;;;;48.50;40.83;;;8.90;99.90;;;;;;4992927;28;20208;-44
2020/12/18 11:27:30;;;;;;;45.77;32.97;;;8.90;99.90;;;;;;4979611;28;20762;-43
2020/12/18 11:29:55;;;;;;;22.03;16.93;;;9.00;99.90;;;;;;4995007;28;20228;-52
2020/12/18 11:32:21;;;;;;;19.67;17.40;;;9.00;99.90;;;;;;4992586;28;20196;-47
2020/12/18 11:34:46;;;;;;;25.60;19.33;;;9.00;99.90;;;;;;4996328;28;20211;-45
2020/12/18 11:37:12;;;;;;;9.67;8.27;;;9.10;99.90;;;;;;4996803;28;20235;-51
2020/12/18 11:39:37;;;;;;;15.73;9.77;;;9.20;99.90;;;;;;4982081;28;20169;-47
2020/12/18 11:42:03;;;;;;;8.03;3.17;;;9.20;99.90;;;;;;5004703;28;20268;-44
2020/12/18 11:44:28;;;;;;;5.07;3.40;;;9.20;99.90;;;;;;4980312;28;20197;-41
2020/12/18 11:46:53;;;;;;;5.73;2.60;;;9.20;99.90;;;;;;4987174;28;20182;-47
2020/12/18 11:49:19;;;;;;;6.67;3.47;;;9.20;99.90;;;;;;4994150;28;20813;-42
2020/12/18 11:51:44;;;;;;;3.17;2.83;;;9.20;99.90;;;;;;4996449;28;20751;-44
2020/12/18 11:54:10;;;;;;;6.33;3.13;;;9.20;99.90;;;;;;4990657;28;20212;-44
2020/12/18 11:56:35;;;;;;;4.67;2.47;;;9.30;99.90;;;;;;4993689;28;20625;-44
2020/12/18 11:59:01;;;;;;;4.30;2.30;;;9.30;99.90;;;;;;4969038;28;20204;-43
2020/12/18 12:01:27;;;;;;;7.93;3.80;;;9.30;99.90;;;;;;4995302;28;20853;-46
2020/12/18 12:03:53;;;;;;;7.50;3.53;;;9.20;99.90;;;;;;5002005;28;20201;-43
2020/12/18 12:06:20;;;;;;;3.33;2.00;;;9.30;99.90;;;;;;4982224;28;20184;-44
2020/12/18 12:08:46;;;;;;;5.53;2.67;;;9.30;99.90;;;;;;4983181;28;20199;-44
2020/12/18 12:11:12;;;;;;;6.47;2.60;;;9.30;99.90;;;;;;4986155;28;20268;-43
2020/12/18 12:13:39;;;;;;;4.57;2.40;;;9.40;99.90;;;;;;4988465;28;20624;-46
2020/12/18 12:16:04;;;;;;;5.93;2.77;;;9.40;99.90;;;;;;4994138;28;20212;-41
2020/12/18 12:18:30;;;;;;;9.03;3.03;;;9.40;99.90;;;;;;5000073;28;20431;-49
2020/12/18 12:20:55;;;;;;;4.90;2.23;;;9.50;99.90;;;;;;4997734;28;20212;-43
2020/12/18 12:23:21;;;;;;;5.13;2.27;;;9.50;99.90;;;;;;4994060;28;20346;-48
2020/12/18 12:25:46;;;;;;;8.37;2.30;;;9.50;99.90;;;;;;4986709;28;20260;-42
2020/12/18 12:28:12;;;;;;;5.23;2.07;;;9.50;99.90;;;;;;4993597;28;20903;-45
2020/12/18 12:30:37;;;;;;;4.10;2.10;;;9.50;99.90;;;;;;4979980;28;20221;-43
2020/12/18 12:33:03;;;;;;;8.93;2.70;;;9.50;99.90;;;;;;4983018;28;20338;-45
2020/12/18 12:35:28;;;;;;;7.17;3.13;;;9.50;99.90;;;;;;4986458;28;20201;-49
2020/12/18 12:37:54;;;;;;;4.40;2.37;;;9.60;99.90;;;;;;5000298;28;20181;-42
2020/12/18 12:40:19;;;;;;;6.10;2.50;;;9.50;99.90;;;;;;5000163;28;20272;-48
2020/12/18 12:42:45;;;;;;;5.37;2.03;;;9.60;99.90;;;;;;4996789;28;20577;-43
2020/12/18 12:45:11;;;;;;;4.00;2.00;;;9.60;99.90;;;;;;4984942;28;20339;-47
2020/12/18 12:47:36;;;;;;;3.53;2.30;;;9.60;99.90;;;;;;4992071;28;20233;-44